createdAt,value
2022-12-20T00:02:05.780Z,101468.34
2022-12-20T00:04:34.855Z,101470.03
2022-12-20T00:07:04.445Z,101468.59
2022-12-20T00:09:34.091Z,101471.53
2022-12-20T00:12:03.888Z,101458.44
2022-12-20T00:14:33.454Z,101474.78
2022-12-20T00:17:03.016Z,101472.75
2022-12-20T00:19:32.565Z,101478.31
2022-12-20T00:22:02.164Z,101465.75
2022-12-20T00:24:33.163Z,101476.09
2022-12-20T00:27:02.792Z,101473.09
2022-12-20T00:29:32.382Z,101477.81
2022-12-20T00:32:01.974Z,101478.75
2022-12-20T00:34:31.621Z,101485.34
2022-12-20T00:37:01.208Z,101487.97
2022-12-20T00:39:30.756Z,101480.19
2022-12-20T00:42:00.324Z,101482.50
2022-12-20T00:44:30.084Z,101471.44
2022-12-20T00:46:59.761Z,101459.88
2022-12-20T00:49:30.758Z,101447.28
2022-12-20T00:52:00.294Z,101447.31
2022-12-20T00:54:29.926Z,101453.34
2022-12-20T00:56:59.635Z,101458.78
2022-12-20T00:59:29.262Z,101450.88
2022-12-20T01:01:58.931Z,101454.25
2022-12-20T01:04:28.596Z,101446.84
2022-12-20T01:06:58.220Z,101439.06
2022-12-20T01:09:27.784Z,101435.72
2022-12-20T01:11:57.394Z,101425.09
2022-12-20T01:14:27.089Z,101422.97
2022-12-20T01:16:56.772Z,101417.09
2022-12-20T01:19:26.328Z,101421.88
2022-12-20T01:21:55.917Z,101423.38
2022-12-20T01:24:25.804Z,101418.72
2022-12-20T01:26:53.596Z,101407.31
2022-12-20T01:29:23.171Z,101407.19
2022-12-20T01:31:54.088Z,101405.59
2022-12-20T01:34:23.780Z,101416.00
2022-12-20T01:36:53.388Z,101418.72
2022-12-20T01:39:23.231Z,101407.75
2022-12-20T01:41:52.827Z,101406.78
2022-12-20T01:44:22.305Z,101407.91
2022-12-20T01:46:53.094Z,101395.44
2022-12-20T01:49:36.799Z,101393.06
2022-12-20T01:52:14.963Z,101390.47
2022-12-20T01:55:09.331Z,101395.63
2022-12-20T01:57:51.833Z,101393.78
2022-12-20T02:00:21.939Z,101384.22
2022-12-20T02:02:52.186Z,101381.72
2022-12-20T02:05:24.657Z,101383.56
2022-12-20T02:07:57.982Z,101375.41
2022-12-20T02:11:23.387Z,101363.34
2022-12-20T02:14:35.710Z,101352.41
2022-12-20T02:17:45.369Z,101341.91
2022-12-20T02:21:09.933Z,101343.72
2022-12-20T02:24:27.027Z,101347.00
2022-12-20T02:27:11.079Z,101337.13
2022-12-20T02:30:18.010Z,101334.31
2022-12-20T02:33:12.030Z,101330.91
2022-12-20T02:35:42.875Z,101327.66
2022-12-20T02:38:38.649Z,101324.53
2022-12-20T02:41:37.574Z,101321.47
2022-12-20T02:44:34.404Z,101320.75
2022-12-20T02:47:10.043Z,101313.53
2022-12-20T02:49:42.385Z,101311.50
2022-12-20T02:52:14.724Z,101318.66
2022-12-20T02:54:44.396Z,101323.69
2022-12-20T02:58:00.291Z,101321.22
2022-12-20T03:00:41.024Z,101325.94
2022-12-20T03:03:24.061Z,101328.00
2022-12-20T03:05:56.650Z,101332.16
2022-12-20T03:08:26.970Z,101330.81
2022-12-20T03:10:56.868Z,101334.44
2022-12-20T03:13:26.898Z,101332.88
2022-12-20T03:15:56.439Z,101339.34
2022-12-20T03:18:26.040Z,101339.66
2022-12-20T03:20:55.655Z,101341.75
2022-12-20T03:23:25.311Z,101335.53
2022-12-20T03:25:54.927Z,101328.28
2022-12-20T03:28:24.559Z,101321.41
2022-12-20T03:30:54.173Z,101313.44
2022-12-20T03:33:23.730Z,101299.88
2022-12-20T03:35:53.298Z,101295.94
2022-12-20T03:38:22.823Z,101281.00
2022-12-20T03:40:52.421Z,101276.38
2022-12-20T03:43:22.054Z,101276.50
2022-12-20T03:45:51.756Z,101269.47
2022-12-20T03:48:21.319Z,101268.81
2022-12-20T03:50:50.975Z,101261.78
2022-12-20T03:53:20.546Z,101258.28
2022-12-20T03:55:50.081Z,101261.19
2022-12-20T03:58:19.604Z,101261.84
2022-12-20T04:00:49.133Z,101254.91
2022-12-20T04:03:19.297Z,101260.06
2022-12-20T04:05:48.854Z,101250.66
2022-12-20T04:08:18.537Z,101259.06
2022-12-20T04:11:06.526Z,101256.25
2022-12-20T04:13:36.109Z,101252.28
2022-12-20T04:16:06.931Z,101267.03
2022-12-20T04:18:36.534Z,101263.53
2022-12-20T04:21:07.449Z,101269.56
2022-12-20T04:23:40.833Z,101271.31
2022-12-20T04:26:11.713Z,101274.72
2022-12-20T04:28:41.440Z,101274.59
2022-12-20T04:31:11.522Z,101272.97
2022-12-20T04:33:41.806Z,101279.25
2022-12-20T04:36:11.645Z,101267.03
2022-12-20T04:38:41.629Z,101271.34
2022-12-20T04:41:22.484Z,101261.75
2022-12-20T04:43:58.266Z,101245.47
2022-12-20T04:46:28.213Z,101251.97
2022-12-20T04:48:59.651Z,101249.06
2022-12-20T04:51:29.749Z,101237.09
2022-12-20T04:53:59.295Z,101242.34
2022-12-20T04:56:30.126Z,101244.06
2022-12-20T04:59:00.100Z,101235.97
2022-12-20T05:01:29.936Z,101228.22
2022-12-20T05:03:59.628Z,101229.09
2022-12-20T05:06:29.219Z,101221.50
2022-12-20T05:08:58.812Z,101214.25
2022-12-20T05:11:28.394Z,101221.31
2022-12-20T05:13:57.986Z,101232.31
2022-12-20T05:16:27.588Z,101240.44
2022-12-20T05:18:57.253Z,101244.78
2022-12-20T05:21:45.318Z,101253.97
2022-12-20T05:24:33.635Z,101265.50
2022-12-20T05:27:03.271Z,101265.66
2022-12-20T05:29:32.809Z,101269.13
2022-12-20T05:32:02.429Z,101268.03
2022-12-20T05:34:32.016Z,101267.38
2022-12-20T05:37:01.507Z,101265.91
2022-12-20T05:39:31.243Z,101263.81
2022-12-20T05:42:01.733Z,101262.13
2022-12-20T05:44:31.430Z,101265.56
2022-12-20T05:47:01.179Z,101269.19
2022-12-20T05:49:30.808Z,101260.56
2022-12-20T05:52:01.866Z,101254.31
2022-12-20T05:54:31.600Z,101258.78
2022-12-20T05:57:01.409Z,101276.28
2022-12-20T05:59:31.029Z,101275.03
2022-12-20T06:02:00.820Z,101275.19
2022-12-20T06:04:33.710Z,101269.22
2022-12-20T06:07:03.287Z,101261.31
2022-12-20T06:09:33.518Z,101249.91
2022-12-20T06:12:03.232Z,101258.63
2022-12-20T06:14:32.803Z,101257.69
2022-12-20T06:17:02.764Z,101247.03
2022-12-20T06:19:32.598Z,101250.75
2022-12-20T06:22:02.234Z,101254.22
2022-12-20T06:24:31.825Z,101253.16
2022-12-20T06:27:02.443Z,101258.44
2022-12-20T06:29:32.177Z,101242.84
2022-12-20T06:32:01.879Z,101239.47
2022-12-20T06:34:32.685Z,101240.66
2022-12-20T06:37:02.392Z,101240.53
2022-12-20T06:39:32.088Z,101231.84
2022-12-20T06:42:01.631Z,101217.03
2022-12-20T06:44:31.401Z,101222.28
2022-12-20T06:47:01.601Z,101202.03
2022-12-20T06:49:31.233Z,101218.50
2022-12-20T06:52:00.855Z,101219.47
2022-12-20T06:54:30.439Z,101214.50
2022-12-20T06:57:00.043Z,101214.38
2022-12-20T06:59:29.672Z,101202.22
2022-12-20T07:01:59.544Z,101194.28
2022-12-20T07:04:29.227Z,101201.53
2022-12-20T07:06:58.796Z,101202.28
2022-12-20T07:09:28.299Z,101206.78
2022-12-20T07:11:58.739Z,101208.63
2022-12-20T07:14:28.548Z,101196.09
2022-12-20T07:16:58.085Z,101186.75
2022-12-20T07:19:27.844Z,101183.50
2022-12-20T07:21:57.404Z,101174.69
2022-12-20T07:24:27.002Z,101177.34
2022-12-20T07:26:56.707Z,101168.69
2022-12-20T07:29:26.424Z,101162.47
2022-12-20T07:31:56.075Z,101174.94
2022-12-20T07:34:25.707Z,101171.44
2022-12-20T07:36:55.643Z,101167.03
2022-12-20T07:39:25.422Z,101174.31
2022-12-20T07:41:56.115Z,101169.94
2022-12-20T07:44:25.759Z,101181.34
2022-12-20T07:46:55.382Z,101190.41
2022-12-20T07:49:24.964Z,101189.38
2022-12-20T07:51:59.412Z,101184.06
2022-12-20T07:54:41.106Z,101189.47
2022-12-20T07:57:28.619Z,101196.59
2022-12-20T08:00:01.714Z,101187.72
2022-12-20T08:03:21.609Z,101185.91
2022-12-20T08:05:57.151Z,101196.50
2022-12-20T08:08:27.486Z,101195.69
2022-12-20T08:10:58.025Z,101193.03
2022-12-20T08:13:27.664Z,101172.69
2022-12-20T08:15:55.510Z,101161.25
2022-12-20T08:18:23.258Z,101159.53
2022-12-20T08:20:52.900Z,101166.63
2022-12-20T08:23:21.624Z,101165.78
2022-12-20T08:25:51.244Z,101170.25
2022-12-20T08:28:20.825Z,101183.50
2022-12-20T08:30:48.705Z,101188.78
2022-12-20T08:33:17.433Z,101191.53
2022-12-20T08:35:45.345Z,101188.88
2022-12-20T08:38:15.007Z,101176.56
2022-12-20T08:40:43.678Z,101179.16
2022-12-20T08:43:13.124Z,101186.25
2022-12-20T08:45:42.666Z,101180.03
2022-12-20T08:48:12.371Z,101163.34
2022-12-20T08:50:42.086Z,101165.13
2022-12-20T08:53:11.675Z,101152.66
2022-12-20T08:55:40.741Z,101148.22
2022-12-20T08:58:10.199Z,101144.69
2022-12-20T09:00:38.915Z,101132.44
2022-12-20T09:03:08.530Z,101132.41
2022-12-20T09:05:46.038Z,101126.25
2022-12-20T09:08:16.968Z,101124.50
2022-12-20T09:10:46.505Z,101130.63
2022-12-20T09:13:16.095Z,101134.13
2022-12-20T09:15:46.143Z,101135.06
2022-12-20T09:18:15.659Z,101124.50
2022-12-20T09:20:48.150Z,101126.28
2022-12-20T09:23:17.656Z,101122.72
2022-12-20T09:25:53.421Z,101128.03
2022-12-20T09:28:24.366Z,101130.69
2022-12-20T09:30:53.125Z,101123.63
2022-12-20T09:33:21.832Z,101120.16
2022-12-20T09:35:51.497Z,101126.34
2022-12-20T09:38:21.155Z,101129.84
2022-12-20T09:40:56.601Z,101123.69
2022-12-20T09:43:26.433Z,101115.72
2022-12-20T09:46:03.035Z,101116.63
2022-12-20T09:48:40.661Z,101118.41
2022-12-20T09:51:52.944Z,101132.47
2022-12-20T09:55:02.914Z,101118.34
2022-12-20T09:58:34.480Z,101109.47
2022-12-20T10:01:25.374Z,101107.69
2022-12-20T10:03:58.198Z,101099.69
2022-12-20T10:07:18.741Z,101101.47
2022-12-20T10:10:05.436Z,101097.91
2022-12-20T10:13:06.813Z,101077.53
2022-12-20T10:15:51.430Z,101081.06
2022-12-20T10:19:14.062Z,101079.47
2022-12-20T10:22:38.103Z,101076.81
2022-12-20T10:25:23.074Z,101073.28
2022-12-20T10:27:54.878Z,101076.69
2022-12-20T10:30:32.539Z,101062.53
2022-12-20T10:33:02.892Z,101054.41
2022-12-20T10:35:40.962Z,101040.91
2022-12-20T10:38:14.429Z,101049.28
2022-12-20T10:44:16.374Z,101026.09
2022-12-20T10:47:01.047Z,101034.06
2022-12-20T10:49:43.151Z,101019.00
2022-12-20T10:52:15.616Z,101024.22
2022-12-20T10:54:48.678Z,101014.72
2022-12-20T10:57:29.831Z,101009.50
2022-12-20T11:00:09.148Z,101003.97
2022-12-20T11:02:43.036Z,100982.75
2022-12-20T11:05:14.604Z,100972.00
2022-12-20T11:08:37.484Z,100976.47
2022-12-20T11:11:24.733Z,100977.06
2022-12-20T11:13:54.245Z,100977.25
2022-12-20T11:16:44.489Z,100973.84
2022-12-20T11:19:47.223Z,100971.75
2022-12-20T11:22:46.587Z,100973.44
2022-12-20T11:25:56.726Z,100994.59
2022-12-20T11:28:38.103Z,100970.09
2022-12-20T11:31:43.939Z,100961.13
2022-12-20T11:34:49.483Z,100968.09
2022-12-20T11:37:29.453Z,100970.19
2022-12-20T11:40:33.170Z,100946.38
2022-12-20T11:43:31.768Z,100947.25
2022-12-20T11:46:39.095Z,100944.59
2022-12-20T11:49:32.081Z,100942.25
2022-12-20T11:52:43.368Z,100941.47
2022-12-20T11:55:29.930Z,100937.59
2022-12-20T11:58:33.023Z,100929.00
2022-12-20T12:01:12.973Z,100925.41
2022-12-20T12:03:59.683Z,100920.16
2022-12-20T12:06:46.488Z,100924.22
2022-12-20T12:09:50.225Z,100920.38
2022-12-20T12:12:34.935Z,100918.84
2022-12-20T12:15:24.785Z,100918.06
2022-12-20T12:18:22.620Z,100920.56
2022-12-20T12:21:26.936Z,100919.88
2022-12-20T12:24:39.333Z,100917.41
2022-12-20T12:27:27.336Z,100914.63
2022-12-20T12:29:59.698Z,100923.72
2022-12-20T12:32:56.079Z,100916.47
2022-12-20T12:35:55.509Z,100900.41
2022-12-20T12:39:48.812Z,100896.19
2022-12-20T12:43:12.599Z,100903.41
2022-12-20T12:46:01.346Z,100906.91
2022-12-20T12:48:52.326Z,100897.09
2022-12-20T12:51:36.526Z,100894.66
2022-12-20T12:54:38.167Z,100889.34
2022-12-20T12:57:18.481Z,100892.09
2022-12-20T12:59:51.995Z,100891.22
2022-12-20T13:02:28.156Z,100887.81
2022-12-20T13:05:09.231Z,100893.81
2022-12-20T13:07:40.204Z,100889.41
2022-12-20T13:10:09.627Z,100877.22
2022-12-20T13:12:47.678Z,100880.88
2022-12-20T13:15:21.727Z,100886.91
2022-12-20T13:18:12.240Z,100889.44
2022-12-20T13:20:42.270Z,100900.00
2022-12-20T13:23:14.014Z,100901.22
2022-12-20T13:25:49.146Z,100896.81
2022-12-20T13:28:27.428Z,100894.03
2022-12-20T13:31:04.689Z,100886.22
2022-12-20T13:33:51.877Z,100883.47
2022-12-20T13:36:39.361Z,100873.91
2022-12-20T13:39:28.891Z,100877.41
2022-12-20T13:42:37.371Z,100872.16
2022-12-20T13:45:12.659Z,100873.06
2022-12-20T13:47:54.779Z,100859.81
2022-12-20T13:50:40.780Z,100860.84
2022-12-20T13:53:21.302Z,100864.41
2022-12-20T13:55:50.428Z,100856.50
2022-12-20T13:58:27.561Z,100844.88
2022-12-20T14:01:12.777Z,100834.34
2022-12-20T14:03:48.232Z,100834.28
2022-12-20T14:06:26.552Z,100832.50
2022-12-20T14:08:56.598Z,100835.19
2022-12-20T14:11:28.220Z,100830.78
2022-12-20T14:14:03.490Z,100831.69
2022-12-20T14:16:34.445Z,100824.69
2022-12-20T14:19:12.690Z,100825.59
2022-12-20T14:21:46.250Z,100822.06
2022-12-20T14:24:21.402Z,100807.06
2022-12-20T14:26:54.361Z,100797.53
2022-12-20T14:29:32.596Z,100805.50
2022-12-20T14:32:03.293Z,100798.53
2022-12-20T14:34:41.510Z,100801.03
2022-12-20T14:37:30.885Z,100810.69
2022-12-20T14:40:12.764Z,100806.38
2022-12-20T14:42:42.498Z,100798.41
2022-12-20T14:45:18.949Z,100797.50
2022-12-20T14:48:03.282Z,100794.88
2022-12-20T14:50:40.988Z,100791.31
2022-12-20T14:53:27.775Z,100794.13
2022-12-20T14:55:58.402Z,100793.22
2022-12-20T14:58:32.785Z,100787.91
2022-12-20T15:01:27.321Z,100770.44
2022-12-20T15:04:00.957Z,100768.69
2022-12-20T15:06:49.366Z,100760.72
2022-12-20T15:09:20.398Z,100760.84
2022-12-20T15:11:52.432Z,100773.94
2022-12-20T15:14:39.407Z,100766.84
2022-12-20T15:17:15.959Z,100770.38
2022-12-20T15:19:46.806Z,100759.06
2022-12-20T15:22:20.463Z,100754.63
2022-12-20T15:24:51.497Z,100769.50
2022-12-20T15:27:21.029Z,100771.25
2022-12-20T15:29:50.955Z,100759.84
2022-12-20T15:32:30.013Z,100757.16
2022-12-20T15:34:59.892Z,100768.66
2022-12-20T15:37:30.370Z,100773.88
2022-12-20T15:40:00.061Z,100768.59
2022-12-20T15:42:29.792Z,100763.47
2022-12-20T15:44:59.464Z,100760.69
2022-12-20T15:47:29.143Z,100780.91
2022-12-20T15:49:59.865Z,100774.81
2022-12-20T15:52:28.639Z,100776.53
2022-12-20T15:54:59.151Z,100780.91
2022-12-20T15:57:28.856Z,100778.19
2022-12-20T16:00:01.090Z,100784.50
2022-12-20T16:02:33.310Z,100791.63
2022-12-20T16:05:03.143Z,100793.31
2022-12-20T16:07:32.782Z,100794.25
2022-12-20T16:10:02.813Z,100787.19
2022-12-20T16:12:35.930Z,100791.56
2022-12-20T16:15:08.279Z,100793.31
2022-12-20T16:17:38.403Z,100787.13
2022-12-20T16:20:11.838Z,100792.41
2022-12-20T16:22:41.566Z,100799.50
2022-12-20T16:25:32.097Z,100790.69
2022-12-20T16:28:03.587Z,100803.91
2022-12-20T16:30:34.944Z,100793.38
2022-12-20T16:33:06.688Z,100784.56
2022-12-20T16:35:37.514Z,100787.19
2022-12-20T16:38:07.256Z,100783.56
2022-12-20T16:40:37.748Z,100777.50
2022-12-20T16:43:16.053Z,100781.91
2022-12-20T16:45:46.890Z,100769.59
2022-12-20T16:48:17.532Z,100765.19
2022-12-20T16:50:47.131Z,100765.19
2022-12-20T16:53:16.804Z,100774.81
2022-12-20T16:55:46.457Z,100774.81
2022-12-20T16:58:16.461Z,100766.06
2022-12-20T17:00:46.091Z,100757.22
2022-12-20T17:03:15.773Z,100769.63
2022-12-20T17:05:46.190Z,100772.19
2022-12-20T17:11:02.207Z,100759.84
2022-12-20T17:17:51.305Z,100739.56
2022-12-20T17:20:23.869Z,100736.94
2022-12-20T17:25:40.332Z,100736.97
2022-12-20T17:28:09.885Z,100735.22
2022-12-20T17:30:39.603Z,100736.94
2022-12-20T17:33:15.523Z,100730.03
2022-12-20T17:35:45.099Z,100736.16
2022-12-20T17:38:14.700Z,100729.94
2022-12-20T17:40:44.337Z,100722.97
2022-12-20T17:43:16.376Z,100721.22
2022-12-20T17:45:45.990Z,100714.16
2022-12-20T17:48:15.669Z,100727.31
2022-12-20T17:50:45.279Z,100722.97
2022-12-20T17:53:14.892Z,100731.66
2022-12-20T17:55:44.684Z,100714.94
2022-12-20T17:58:15.941Z,100715.78
2022-12-20T18:00:43.716Z,100719.44
2022-12-20T18:03:52.977Z,100722.97
2022-12-20T18:06:08.379Z,100730.06
2022-12-20T18:08:37.407Z,100735.28
2022-12-20T18:11:10.279Z,100730.00
2022-12-20T18:13:47.756Z,100722.06
2022-12-20T18:16:28.702Z,100737.09
2022-12-20T18:18:59.556Z,100734.41
2022-12-20T18:21:29.286Z,100736.06
2022-12-20T18:23:59.047Z,100726.47
2022-12-20T18:26:33.640Z,100721.22
2022-12-20T18:29:04.124Z,100704.47
2022-12-20T18:31:36.298Z,100703.47
2022-12-20T18:34:06.391Z,100707.06
2022-12-20T18:36:38.680Z,100704.41
2022-12-20T18:39:11.961Z,100707.06
2022-12-20T18:41:44.372Z,100697.41
2022-12-20T18:44:14.060Z,100693.88
2022-12-20T18:46:43.722Z,100692.22
2022-12-20T18:49:14.168Z,100691.34
2022-12-20T18:51:44.686Z,100692.22
2022-12-20T18:54:15.171Z,100698.38
2022-12-20T18:56:44.863Z,100690.47
2022-12-20T18:59:14.592Z,100674.63
2022-12-20T19:01:45.282Z,100680.75
2022-12-20T19:04:22.474Z,100662.25
2022-12-20T19:06:55.026Z,100666.69
2022-12-20T19:09:24.946Z,100660.53
2022-12-20T19:11:57.388Z,100652.66
2022-12-20T19:14:27.744Z,100647.34
2022-12-20T19:16:57.435Z,100651.75
2022-12-20T19:19:28.029Z,100655.25
2022-12-20T19:21:58.992Z,100651.78
2022-12-20T19:24:29.495Z,100657.03
2022-12-20T19:26:59.203Z,100658.78
2022-12-20T19:29:29.721Z,100649.19
2022-12-20T19:31:57.520Z,100655.31
2022-12-20T19:34:27.165Z,100659.69
2022-12-20T19:36:57.896Z,100669.34
2022-12-20T19:39:28.971Z,100668.53
2022-12-20T19:42:23.126Z,100661.50
2022-12-20T19:44:50.428Z,100652.72
2022-12-20T19:47:20.085Z,100656.19
2022-12-20T19:49:49.785Z,100658.78
2022-12-20T19:52:24.813Z,100651.75
2022-12-20T19:54:55.948Z,100646.53
2022-12-20T19:57:26.425Z,100638.53
2022-12-20T19:59:57.333Z,100643.03
2022-12-20T20:02:27.132Z,100636.84
2022-12-20T20:04:57.785Z,100638.53
2022-12-20T20:07:27.434Z,100637.69
2022-12-20T20:09:57.058Z,100633.34
2022-12-20T20:12:26.720Z,100639.50
2022-12-20T20:14:56.394Z,100632.44
2022-12-20T20:17:26.896Z,100624.56
2022-12-20T20:19:57.363Z,100621.00
2022-12-20T20:22:27.823Z,100626.31
2022-12-20T20:24:57.441Z,100636.88
2022-12-20T20:27:27.050Z,100631.59
2022-12-20T20:29:56.693Z,100637.75
2022-12-20T20:32:27.233Z,100644.72
2022-12-20T20:34:56.708Z,100647.41
2022-12-20T20:37:27.228Z,100655.31
2022-12-20T20:39:56.833Z,100652.66
2022-12-20T20:42:26.453Z,100648.22
2022-12-20T20:44:56.107Z,100648.19
2022-12-20T20:47:25.929Z,100641.22
2022-12-20T20:49:55.643Z,100639.44
2022-12-20T20:52:25.333Z,100636.88
2022-12-20T20:54:54.921Z,100642.16
2022-12-20T20:57:24.520Z,100633.38
2022-12-20T20:59:54.110Z,100649.19
2022-12-20T21:02:24.698Z,100631.53
2022-12-20T21:05:35.748Z,100633.34
2022-12-20T21:07:45.741Z,100629.78
2022-12-20T21:10:15.670Z,100619.25
2022-12-20T21:12:46.369Z,100622.72
2022-12-20T21:15:24.309Z,100623.63
2022-12-20T21:17:55.753Z,100605.09
2022-12-20T21:20:26.429Z,100599.84
2022-12-20T21:22:57.437Z,100607.81
2022-12-20T21:25:27.475Z,100604.31
2022-12-20T21:27:57.855Z,100601.66
2022-12-20T21:30:27.459Z,100606.03
2022-12-20T21:32:57.111Z,100596.41
2022-12-20T21:35:27.224Z,100596.44
2022-12-20T21:37:56.831Z,100597.28
2022-12-20T21:40:26.437Z,100591.19
2022-12-20T21:42:55.986Z,100576.09
2022-12-20T21:45:25.572Z,100574.47
2022-12-20T21:48:01.180Z,100574.44
2022-12-20T21:50:32.657Z,100582.38
2022-12-20T21:53:02.149Z,100585.06
2022-12-20T21:55:31.668Z,100576.25
2022-12-20T21:58:01.194Z,100552.44
2022-12-20T22:00:30.770Z,100542.81
2022-12-20T22:03:00.603Z,100561.28
2022-12-20T22:05:30.483Z,100562.19
2022-12-20T22:08:00.036Z,100563.91
2022-12-20T22:10:29.561Z,100548.06
2022-12-20T22:12:59.090Z,100559.53
2022-12-20T22:15:28.644Z,100549.00
2022-12-20T22:17:58.185Z,100541.09
2022-12-20T22:20:27.704Z,100542.84
2022-12-20T22:22:57.256Z,100541.94
2022-12-20T22:25:26.924Z,100554.25
2022-12-20T22:27:56.465Z,100548.88
2022-12-20T22:30:25.977Z,100543.75
2022-12-20T22:32:55.672Z,100531.31
2022-12-20T22:35:25.727Z,100530.47
2022-12-20T22:37:55.336Z,100515.56
2022-12-20T22:40:24.876Z,100520.03
2022-12-20T22:42:54.408Z,100520.91
2022-12-20T22:45:24.208Z,100524.41
2022-12-20T22:47:53.839Z,100512.09
2022-12-20T22:50:23.344Z,100498.84
2022-12-20T22:52:52.853Z,100503.25
2022-12-20T22:55:22.366Z,100490.84
2022-12-20T22:57:51.898Z,100504.13
2022-12-20T23:00:21.760Z,100498.84
2022-12-20T23:02:51.653Z,100507.56
2022-12-20T23:05:20.540Z,100495.22
2022-12-20T23:07:50.068Z,100478.53
2022-12-20T23:10:38.534Z,100482.13
2022-12-20T23:13:27.249Z,100467.09
2022-12-20T23:15:57.004Z,100462.94
2022-12-20T23:18:26.526Z,100478.63
2022-12-20T23:21:15.108Z,100498.84
2022-12-20T23:23:44.891Z,100493.59
2022-12-20T23:26:17.127Z,100483.94
2022-12-20T23:28:46.842Z,100475.16
2022-12-20T23:31:16.570Z,100478.59
2022-12-20T23:33:46.306Z,100472.41
2022-12-20T23:36:15.841Z,100462.81
2022-12-20T23:38:45.383Z,100448.66
2022-12-20T23:41:16.405Z,100445.13
2022-12-20T23:43:46.065Z,100439.84
2022-12-20T23:46:18.869Z,100437.25
2022-12-20T23:48:51.070Z,100434.56
2022-12-20T23:51:22.489Z,100433.75
2022-12-20T23:53:52.904Z,100428.47
2022-12-20T23:56:23.640Z,100423.22
2022-12-20T23:58:55.361Z,100424.91
